createdAt,value
2018-07-09T00:02:23.676Z,10.03
2018-07-09T00:04:52.350Z,10.23
2018-07-09T00:07:20.933Z,9.97
2018-07-09T00:09:49.535Z,8.93
2018-07-09T00:12:18.124Z,13.00
2018-07-09T00:14:46.713Z,10.60
2018-07-09T00:17:15.332Z,14.67
2018-07-09T00:19:43.941Z,9.87
2018-07-09T00:22:12.605Z,11.97
2018-07-09T00:24:41.296Z,11.23
2018-07-09T00:27:09.922Z,10.93
2018-07-09T00:29:38.552Z,11.77
2018-07-09T00:32:07.158Z,10.67
2018-07-09T00:34:35.795Z,10.43
2018-07-09T00:39:39.240Z,14.10
2018-07-09T00:42:07.909Z,12.83
2018-07-09T00:44:36.513Z,13.03
2018-07-09T00:47:05.148Z,10.57
2018-07-09T00:49:33.785Z,10.63
2018-07-09T00:52:02.388Z,11.80
2018-07-09T00:54:31.070Z,11.30
2018-07-09T00:56:59.713Z,10.87
2018-07-09T00:59:28.370Z,8.03
2018-07-09T01:01:56.992Z,9.70
2018-07-09T01:04:25.601Z,10.03
2018-07-09T01:06:54.248Z,11.20
2018-07-09T01:09:22.843Z,13.30
2018-07-09T01:11:55.800Z,12.10
2018-07-09T01:14:24.390Z,13.50
2018-07-09T01:16:52.964Z,12.83
2018-07-09T01:19:21.623Z,12.17
2018-07-09T01:21:50.213Z,14.77
2018-07-09T01:24:18.787Z,12.40
2018-07-09T01:26:47.417Z,12.23
2018-07-09T01:29:15.988Z,13.07
2018-07-09T01:31:44.595Z,11.97
2018-07-09T01:34:13.194Z,12.37
2018-07-09T01:36:41.810Z,13.30
2018-07-09T01:39:10.490Z,11.00
2018-07-09T01:41:39.069Z,13.53
2018-07-09T01:44:07.696Z,10.47
2018-07-09T01:46:36.288Z,10.90
2018-07-09T01:49:04.889Z,11.47
2018-07-09T01:51:33.516Z,10.53
2018-07-09T01:54:02.111Z,13.93
2018-07-09T01:56:30.697Z,13.33
2018-07-09T01:58:59.288Z,11.40
2018-07-09T02:01:27.888Z,10.43
2018-07-09T02:03:56.466Z,12.13
2018-07-09T02:06:25.074Z,13.03
2018-07-09T02:08:53.708Z,12.80
2018-07-09T02:11:22.349Z,13.10
2018-07-09T02:13:50.973Z,12.47
2018-07-09T02:16:19.595Z,14.83
2018-07-09T02:18:48.177Z,10.63
2018-07-09T02:21:16.804Z,11.77
2018-07-09T02:23:45.416Z,12.43
2018-07-09T02:26:14.012Z,13.60
2018-07-09T02:28:42.622Z,11.43
2018-07-09T02:31:11.229Z,11.97
2018-07-09T02:33:39.856Z,12.43
2018-07-09T02:36:08.435Z,10.10
2018-07-09T02:38:37.020Z,10.33
2018-07-09T02:41:05.640Z,12.13
2018-07-09T02:43:34.229Z,12.80
2018-07-09T02:46:02.864Z,15.57
2018-07-09T02:48:31.449Z,10.87
2018-07-09T02:51:00.055Z,14.90
2018-07-09T02:53:28.629Z,12.97
2018-07-09T02:55:57.221Z,16.03
2018-07-09T02:58:25.902Z,11.80
2018-07-09T03:00:54.630Z,12.53
2018-07-09T03:03:23.189Z,13.13
2018-07-09T03:05:51.766Z,11.67
2018-07-09T03:08:20.345Z,13.43
2018-07-09T03:10:48.985Z,17.27
2018-07-09T03:13:17.600Z,11.43
2018-07-09T03:15:46.213Z,18.00
2018-07-09T03:18:14.817Z,10.70
2018-07-09T03:20:43.398Z,10.47
2018-07-09T03:23:12.055Z,13.53
2018-07-09T03:25:40.668Z,11.60
2018-07-09T03:28:09.291Z,16.90
2018-07-09T03:30:37.903Z,11.30
2018-07-09T03:33:06.485Z,13.83
2018-07-09T03:35:35.141Z,10.77
2018-07-09T03:38:03.726Z,13.50
2018-07-09T03:40:32.324Z,12.70
2018-07-09T03:43:01.792Z,14.37
2018-07-09T03:45:30.497Z,15.20
2018-07-09T03:47:59.072Z,15.03
2018-07-09T03:50:27.678Z,15.13
2018-07-09T03:52:56.301Z,17.47
2018-07-09T03:55:24.917Z,15.00
2018-07-09T03:57:53.556Z,14.33
2018-07-09T04:00:22.187Z,15.03
2018-07-09T04:02:50.834Z,15.63
2018-07-09T04:05:19.477Z,15.20
2018-07-09T04:07:48.172Z,15.40
2018-07-09T04:10:16.809Z,17.63
2018-07-09T04:12:45.408Z,16.70
2018-07-09T04:15:14.009Z,13.50
2018-07-09T04:17:42.648Z,15.13
2018-07-09T04:20:11.250Z,17.53
2018-07-09T04:22:39.844Z,14.83
2018-07-09T04:25:08.457Z,14.20
2018-07-09T04:27:37.054Z,15.87
2018-07-09T04:30:05.680Z,17.33
2018-07-09T04:32:34.284Z,17.50
2018-07-09T04:35:02.901Z,14.47
2018-07-09T04:37:31.628Z,15.33
2018-07-09T04:40:00.230Z,12.80
2018-07-09T04:42:28.883Z,13.83
2018-07-09T04:44:57.484Z,16.53
2018-07-09T04:47:26.935Z,17.00
2018-07-09T04:49:55.524Z,18.13
2018-07-09T04:52:24.101Z,14.77
2018-07-09T04:54:52.720Z,12.83
2018-07-09T04:57:21.299Z,18.67
2018-07-09T04:59:49.887Z,15.20
2018-07-09T05:02:18.474Z,16.50
2018-07-09T05:04:47.166Z,15.33
2018-07-09T05:07:15.759Z,15.17
2018-07-09T05:09:44.382Z,13.27
2018-07-09T05:12:12.978Z,15.70
2018-07-09T05:14:41.583Z,13.23
2018-07-09T05:17:10.211Z,14.43
2018-07-09T05:19:38.801Z,15.13
2018-07-09T05:22:07.418Z,15.20
2018-07-09T05:24:36.025Z,15.47
2018-07-09T05:27:04.616Z,17.37
2018-07-09T05:29:33.205Z,13.53
2018-07-09T05:32:01.789Z,17.07
2018-07-09T05:34:30.444Z,12.80
2018-07-09T05:36:59.064Z,12.33
2018-07-09T05:39:27.693Z,14.10
2018-07-09T05:41:56.285Z,13.53
2018-07-09T05:44:24.918Z,12.00
2018-07-09T05:46:53.538Z,9.53
2018-07-09T05:49:22.527Z,11.33
2018-07-09T05:51:51.133Z,10.80
2018-07-09T05:54:19.730Z,12.40
2018-07-09T05:56:48.333Z,6.27
2018-07-09T05:59:16.919Z,10.83
2018-07-09T06:01:45.512Z,12.97
2018-07-09T06:04:14.185Z,13.03
2018-07-09T06:06:44.717Z,9.77
2018-07-09T06:09:13.327Z,11.03
2018-07-09T06:11:42.284Z,9.97
2018-07-09T06:14:11.317Z,10.60
2018-07-09T06:16:50.519Z,9.20
2018-07-09T06:19:19.155Z,5.60
2018-07-09T06:21:47.770Z,13.60
2018-07-09T06:24:16.353Z,10.17
2018-07-09T06:26:44.980Z,7.97
2018-07-09T06:29:13.537Z,8.87
2018-07-09T06:31:42.136Z,6.50
2018-07-09T06:34:10.741Z,9.40
2018-07-09T06:36:39.337Z,10.10
2018-07-09T06:39:08.028Z,9.67
2018-07-09T06:41:36.719Z,9.90
2018-07-09T06:44:05.321Z,8.57
2018-07-09T06:46:33.913Z,10.43
2018-07-09T06:49:02.602Z,9.73
2018-07-09T06:51:31.292Z,7.63
2018-07-09T06:54:00.725Z,11.77
2018-07-09T06:56:29.285Z,10.53
2018-07-09T06:58:58.077Z,9.13
2018-07-09T07:01:26.972Z,11.73
2018-07-09T07:03:55.733Z,8.83
2018-07-09T07:06:24.440Z,11.23
2018-07-09T07:08:53.230Z,9.17
2018-07-09T07:11:22.112Z,7.87
2018-07-09T07:13:50.835Z,8.10
2018-07-09T07:16:19.730Z,9.10
2018-07-09T07:18:48.629Z,7.40
2018-07-09T07:21:17.388Z,12.10
2018-07-09T07:23:46.079Z,7.33
2018-07-09T07:26:14.780Z,10.10
2018-07-09T07:28:44.620Z,6.80
2018-07-09T07:31:16.390Z,7.23
2018-07-09T07:33:45.268Z,6.03
2018-07-09T07:36:14.141Z,11.73
2018-07-09T07:38:42.823Z,8.03
2018-07-09T07:41:11.624Z,8.10
2018-07-09T07:43:40.407Z,8.57
2018-07-09T07:46:09.199Z,9.47
2018-07-09T07:48:37.923Z,10.37
2018-07-09T07:51:06.819Z,7.10
2018-07-09T07:53:35.712Z,10.37
2018-07-09T07:56:04.505Z,9.80
2018-07-09T07:58:33.328Z,7.90
2018-07-09T08:01:02.060Z,7.93
2018-07-09T08:03:30.851Z,8.03
2018-07-09T08:05:59.547Z,5.93
2018-07-09T08:08:28.336Z,5.67
2018-07-09T08:10:57.259Z,6.23
2018-07-09T08:13:28.501Z,5.47
2018-07-09T08:15:55.051Z,8.17
2018-07-09T08:18:23.946Z,7.77
2018-07-09T08:20:52.812Z,8.97
2018-07-09T08:23:21.634Z,11.90
2018-07-09T08:25:50.309Z,5.60
2018-07-09T08:28:19.088Z,6.60
2018-07-09T08:30:47.879Z,3.80
2018-07-09T08:33:16.671Z,4.37
2018-07-09T08:35:45.463Z,4.07
2018-07-09T08:38:14.083Z,7.53
2018-07-09T08:40:42.639Z,5.30
2018-07-09T08:43:11.214Z,5.03
2018-07-09T08:45:39.752Z,4.83
2018-07-09T08:48:08.284Z,5.00
2018-07-09T08:50:36.840Z,3.47
2018-07-09T08:53:05.376Z,4.77
2018-07-09T08:55:34.132Z,3.50
2018-07-09T08:58:02.671Z,6.00
2018-07-09T09:00:31.244Z,5.20
2018-07-09T09:02:59.831Z,9.97
2018-07-09T09:05:28.708Z,7.73
2018-07-09T09:07:57.308Z,4.23
2018-07-09T09:10:25.926Z,4.47
2018-07-09T09:12:54.487Z,5.97
2018-07-09T09:15:23.075Z,5.47
2018-07-09T09:17:51.696Z,5.07
2018-07-09T09:20:20.252Z,5.87
2018-07-09T09:22:48.793Z,6.03
2018-07-09T09:25:17.328Z,4.60
2018-07-09T09:27:45.877Z,3.80
2018-07-09T09:30:14.408Z,4.23
2018-07-09T09:32:43.003Z,4.63
2018-07-09T09:35:11.557Z,10.93
2018-07-09T09:37:40.170Z,6.00
2018-07-09T09:40:08.756Z,5.03
2018-07-09T09:42:37.296Z,6.23
2018-07-09T09:45:05.829Z,3.90
2018-07-09T09:47:34.417Z,6.00
2018-07-09T09:50:02.613Z,5.63
2018-07-09T09:52:30.827Z,4.63
2018-07-09T09:57:44.232Z,4.80
2018-07-09T10:00:12.784Z,5.30
2018-07-09T10:02:41.400Z,5.67
2018-07-09T10:05:09.980Z,6.17
2018-07-09T10:07:38.504Z,5.83
2018-07-09T10:10:07.092Z,5.87
2018-07-09T10:12:35.644Z,6.20
2018-07-09T10:15:04.235Z,5.20
2018-07-09T10:17:32.850Z,5.17
2018-07-09T10:20:01.517Z,4.30
2018-07-09T10:22:30.113Z,4.37
2018-07-09T10:24:58.644Z,6.83
2018-07-09T10:27:27.197Z,7.43
2018-07-09T10:29:55.769Z,8.47
2018-07-09T10:32:24.316Z,6.63
2018-07-09T10:34:52.940Z,7.23
2018-07-09T10:37:21.532Z,4.15
2018-07-09T10:39:50.143Z,4.15
2018-07-09T10:42:18.699Z,3.62
2018-07-09T10:44:47.289Z,6.30
2018-07-09T10:47:15.877Z,3.72
2018-07-09T10:49:44.417Z,7.85
2018-07-09T10:52:12.955Z,4.72
2018-07-09T10:54:41.568Z,3.67
2018-07-09T10:57:10.124Z,5.05
2018-07-09T10:59:38.676Z,4.30
2018-07-09T11:02:07.275Z,4.53
2018-07-09T11:04:35.796Z,4.57
2018-07-09T11:07:04.406Z,3.53
2018-07-09T11:09:32.995Z,3.60
2018-07-09T11:12:01.541Z,3.55
2018-07-09T11:14:30.139Z,3.12
2018-07-09T11:16:58.712Z,2.85
2018-07-09T11:19:27.336Z,4.25
2018-07-09T11:21:55.916Z,5.85
2018-07-09T11:24:24.469Z,3.50
2018-07-09T11:26:53.049Z,4.08
2018-07-09T11:29:22.191Z,3.72
2018-07-09T11:31:51.108Z,3.45
2018-07-09T11:34:19.811Z,2.83
2018-07-09T11:36:48.660Z,3.17
2018-07-09T11:39:17.455Z,2.80
2018-07-09T11:41:46.245Z,3.52
2018-07-09T11:44:15.052Z,3.92
2018-07-09T11:46:43.861Z,5.58
2018-07-09T11:49:12.756Z,4.87
2018-07-09T11:51:41.650Z,2.55
2018-07-09T11:54:10.444Z,3.90
2018-07-09T11:56:39.339Z,4.12
2018-07-09T11:59:08.204Z,3.42
2018-07-09T12:01:36.908Z,4.53
2018-07-09T12:04:05.516Z,8.30
2018-07-09T12:06:34.375Z,6.10
2018-07-09T12:09:03.273Z,4.20
2018-07-09T12:11:32.057Z,3.58
2018-07-09T12:14:00.786Z,3.65
2018-07-09T12:16:29.373Z,3.52
2018-07-09T12:18:58.063Z,5.72
2018-07-09T12:21:26.847Z,5.85
2018-07-09T12:23:55.515Z,3.65
2018-07-09T12:26:24.308Z,5.92
2018-07-09T12:28:53.003Z,6.83
2018-07-09T12:31:21.822Z,2.58
2018-07-09T12:33:50.717Z,6.00
2018-07-09T12:36:19.652Z,4.20
2018-07-09T12:38:48.575Z,4.50
2018-07-09T12:41:17.301Z,4.22
2018-07-09T12:43:46.079Z,5.50
2018-07-09T12:46:14.751Z,4.40
2018-07-09T12:48:43.545Z,3.75
2018-07-09T12:51:12.339Z,5.75
2018-07-09T12:53:41.131Z,3.50
2018-07-09T12:56:09.919Z,2.90
2018-07-09T12:58:38.643Z,4.58
2018-07-09T13:01:07.418Z,3.15
2018-07-09T13:03:36.128Z,7.53
2018-07-09T13:06:05.448Z,5.33
2018-07-09T13:08:34.378Z,4.42
2018-07-09T13:11:03.222Z,3.62
2018-07-09T13:13:32.014Z,4.60
2018-07-09T13:16:00.908Z,3.60
2018-07-09T13:18:29.701Z,3.15
2018-07-09T13:20:58.663Z,6.10
2018-07-09T13:23:27.362Z,4.50
2018-07-09T13:25:56.565Z,5.60
2018-07-09T13:28:25.354Z,5.65
2018-07-09T13:30:54.061Z,3.42
2018-07-09T13:33:22.936Z,3.52
2018-07-09T13:35:51.762Z,4.42
2018-07-09T13:38:20.525Z,3.20
2018-07-09T13:40:49.313Z,5.22
2018-07-09T13:43:18.109Z,6.13
2018-07-09T13:45:46.724Z,5.83
2018-07-09T13:48:15.622Z,3.90
2018-07-09T13:50:44.392Z,4.97
2018-07-09T13:53:13.176Z,6.47
2018-07-09T13:55:41.896Z,5.07
2018-07-09T13:58:10.760Z,4.57
2018-07-09T14:00:39.552Z,6.90
2018-07-09T14:03:08.247Z,3.63
2018-07-09T14:05:37.065Z,3.83
2018-07-09T14:08:05.932Z,16.13
2018-07-09T14:10:34.621Z,3.77
2018-07-09T14:13:03.412Z,5.10
2018-07-09T14:15:32.339Z,4.57
2018-07-09T14:18:01.099Z,4.03
2018-07-09T14:20:34.937Z,5.97
2018-07-09T14:23:04.415Z,4.53
2018-07-09T14:25:33.211Z,7.20
2018-07-09T14:28:01.906Z,4.70
2018-07-09T14:30:30.688Z,3.63
2018-07-09T14:32:59.793Z,4.47
2018-07-09T14:35:28.480Z,5.50
2018-07-09T14:37:57.308Z,5.40
2018-07-09T14:40:26.267Z,3.67
2018-07-09T14:42:54.964Z,3.57
2018-07-09T14:45:23.756Z,3.17
2018-07-09T14:47:52.465Z,6.30
2018-07-09T14:50:21.036Z,3.55
2018-07-09T14:52:49.855Z,3.50
2018-07-09T14:55:18.627Z,5.55
2018-07-09T14:57:47.315Z,6.15
2018-07-09T15:00:16.251Z,6.55
2018-07-09T15:02:45.001Z,4.58
2018-07-09T15:05:13.687Z,5.65
2018-07-09T15:07:42.426Z,5.25
2018-07-09T15:10:11.371Z,3.77
2018-07-09T15:12:40.096Z,5.83
2018-07-09T15:15:09.092Z,5.58
2018-07-09T15:17:37.861Z,9.95
2018-07-09T15:20:06.852Z,4.87
2018-07-09T15:22:35.674Z,4.73
2018-07-09T15:25:04.590Z,5.23
2018-07-09T15:27:33.463Z,9.30
2018-07-09T15:30:02.365Z,6.47
2018-07-09T15:32:32.549Z,4.93
2018-07-09T15:35:01.261Z,3.30
2018-07-09T15:37:30.160Z,4.20
2018-07-09T15:39:58.704Z,11.08
2018-07-09T15:42:27.271Z,4.95
2018-07-09T15:44:55.831Z,3.50
2018-07-09T15:47:24.375Z,5.62
2018-07-09T15:49:52.935Z,5.00
2018-07-09T15:52:21.492Z,4.20
2018-07-09T15:54:50.083Z,7.40
2018-07-09T15:57:18.637Z,7.65
2018-07-09T15:59:47.188Z,4.33
2018-07-09T16:02:15.711Z,6.37
2018-07-09T16:04:44.261Z,5.17
2018-07-09T16:07:12.850Z,3.77
2018-07-09T16:09:41.394Z,4.87
2018-07-09T16:12:09.933Z,4.53
2018-07-09T16:14:38.477Z,8.93
2018-07-09T16:17:07.041Z,7.57
2018-07-09T16:19:35.588Z,11.20
2018-07-09T16:22:04.152Z,6.23
2018-07-09T16:24:33.034Z,5.57
2018-07-09T16:27:01.802Z,3.20
2018-07-09T16:29:30.590Z,4.67
2018-07-09T16:31:59.307Z,4.17
2018-07-09T16:34:28.081Z,4.70
2018-07-09T16:36:56.864Z,5.10
2018-07-09T16:39:25.686Z,6.43
2018-07-09T16:41:54.556Z,8.60
2018-07-09T16:44:23.239Z,4.47
2018-07-09T16:46:51.992Z,4.43
2018-07-09T16:49:20.823Z,3.77
2018-07-09T16:51:49.547Z,4.23
2018-07-09T16:54:18.413Z,3.73
2018-07-09T16:56:47.030Z,7.93
2018-07-09T16:59:15.617Z,3.73
2018-07-09T17:01:44.512Z,5.60
2018-07-09T17:04:13.389Z,5.40
2018-07-09T17:06:42.067Z,5.47
2018-07-09T17:09:10.860Z,4.63
2018-07-09T17:11:39.752Z,2.90
2018-07-09T17:14:08.549Z,4.97
2018-07-09T17:16:37.340Z,3.47
2018-07-09T17:19:06.259Z,5.80
2018-07-09T17:21:35.028Z,5.70
2018-07-09T17:24:03.853Z,3.97
2018-07-09T17:26:32.840Z,3.73
2018-07-09T17:29:01.507Z,5.77
2018-07-09T17:31:30.330Z,3.63
2018-07-09T17:33:59.122Z,5.60
2018-07-09T17:36:28.019Z,6.87
2018-07-09T17:38:56.955Z,5.60
2018-07-09T17:41:25.775Z,3.63
2018-07-09T17:43:54.482Z,5.03
2018-07-09T17:46:23.156Z,3.97
2018-07-09T17:48:51.776Z,4.53
2018-07-09T17:51:20.466Z,2.97
2018-07-09T17:53:49.334Z,5.37
2018-07-09T17:56:18.124Z,5.27
2018-07-09T17:58:46.951Z,5.67
2018-07-09T18:01:15.745Z,5.10
2018-07-09T18:03:44.511Z,6.37
2018-07-09T18:06:13.297Z,4.60
2018-07-09T18:08:42.088Z,4.80
2018-07-09T18:11:10.879Z,17.53
2018-07-09T18:13:39.713Z,9.00
2018-07-09T18:16:08.495Z,11.97
2018-07-09T18:18:37.162Z,9.10
2018-07-09T18:21:05.960Z,11.27
2018-07-09T18:23:34.640Z,7.93
2018-07-09T18:26:03.327Z,8.83
2018-07-09T18:28:32.151Z,5.73
2018-07-09T18:31:01.017Z,8.27
2018-07-09T18:33:29.698Z,6.67
2018-07-09T18:35:58.400Z,5.80
2018-07-09T18:38:27.281Z,6.53
2018-07-09T18:40:56.088Z,7.33
2018-07-09T18:43:24.905Z,9.33
2018-07-09T18:45:53.699Z,9.83
2018-07-09T18:48:22.518Z,9.23
2018-07-09T18:50:51.182Z,10.00
2018-07-09T18:53:19.976Z,9.67
2018-07-09T18:55:48.870Z,14.50
2018-07-09T18:58:17.678Z,17.77
2018-07-09T19:00:46.558Z,18.00
2018-07-09T19:03:15.453Z,13.63
2018-07-09T19:05:48.107Z,14.73
2018-07-09T19:08:16.824Z,12.83
2018-07-09T19:10:45.729Z,16.67
2018-07-09T19:13:14.614Z,12.00
2018-07-09T19:15:43.390Z,14.30
2018-07-09T19:18:23.458Z,7.77
2018-07-09T19:21:23.385Z,14.90
2018-07-09T19:23:51.875Z,8.47
2018-07-09T19:26:19.920Z,8.90
2018-07-09T19:28:48.098Z,9.80
2018-07-09T19:31:16.483Z,8.53
2018-07-09T19:33:44.527Z,8.47
2018-07-09T19:36:12.634Z,6.87
2018-07-09T19:38:40.883Z,10.03
2018-07-09T19:41:09.403Z,9.43
2018-07-09T19:43:37.687Z,8.50
2018-07-09T19:46:06.209Z,9.60
2018-07-09T19:48:34.414Z,9.07
2018-07-09T19:51:02.524Z,9.50
2018-07-09T19:53:30.600Z,7.60
2018-07-09T19:55:58.853Z,6.20
2018-07-09T19:58:27.068Z,6.37
2018-07-09T20:00:55.258Z,9.50
2018-07-09T20:03:23.434Z,4.73
2018-07-09T20:05:51.567Z,7.33
2018-07-09T20:08:19.644Z,9.97
2018-07-09T20:10:53.583Z,13.80
2018-07-09T20:13:26.882Z,7.40
2018-07-09T20:16:00.243Z,7.73
2018-07-09T20:18:28.966Z,11.47
2018-07-09T20:20:57.067Z,12.33
2018-07-09T20:23:25.192Z,7.27
2018-07-09T20:25:53.298Z,7.80
2018-07-09T20:28:21.377Z,10.07
2018-07-09T20:30:49.624Z,7.43
2018-07-09T20:33:17.806Z,8.60
2018-07-09T20:35:45.880Z,9.37
2018-07-09T20:38:13.964Z,11.57
2018-07-09T20:40:42.986Z,9.60
2018-07-09T20:43:11.060Z,18.57
2018-07-09T20:45:39.193Z,11.67
2018-07-09T20:48:07.392Z,7.87
2018-07-09T20:50:36.415Z,11.27
2018-07-09T20:53:05.209Z,9.37
2018-07-09T20:55:33.386Z,10.00
2018-07-09T20:58:01.433Z,11.50
2018-07-09T21:00:29.540Z,10.00
2018-07-09T21:02:57.615Z,8.47
2018-07-09T21:05:25.797Z,9.87
2018-07-09T21:07:53.974Z,10.67
2018-07-09T21:10:22.049Z,8.83
2018-07-09T21:12:56.676Z,7.30
2018-07-09T21:15:26.240Z,9.37
2018-07-09T21:17:54.231Z,8.80
2018-07-09T21:20:22.951Z,8.70
2018-07-09T21:22:51.502Z,10.87
2018-07-09T21:25:19.719Z,6.40
2018-07-09T21:27:48.000Z,9.03
2018-07-09T21:30:16.178Z,12.17
2018-07-09T21:32:44.329Z,12.07
2018-07-09T21:35:12.433Z,9.20
2018-07-09T21:37:40.607Z,13.37
2018-07-09T21:40:08.791Z,10.93
2018-07-09T21:42:36.971Z,11.40
2018-07-09T21:45:05.863Z,10.50
2018-07-09T21:47:33.978Z,9.63
2018-07-09T21:50:02.446Z,13.37
2018-07-09T21:52:30.769Z,8.93
2018-07-09T21:54:59.536Z,10.53
2018-07-09T21:57:27.653Z,9.77
2018-07-09T21:59:55.857Z,11.57
2018-07-09T22:02:23.904Z,8.53
2018-07-09T22:04:52.112Z,11.90
2018-07-09T22:07:21.016Z,13.47
2018-07-09T22:09:49.292Z,10.83
2018-07-09T22:12:17.468Z,10.23
2018-07-09T22:14:45.558Z,10.93
2018-07-09T22:17:13.928Z,10.17
2018-07-09T22:19:42.516Z,8.97
2018-07-09T22:22:10.668Z,7.77
2018-07-09T22:24:38.670Z,9.57
2018-07-09T22:27:07.328Z,7.87
2018-07-09T22:29:35.750Z,8.20
2018-07-09T22:32:04.746Z,9.40
2018-07-09T22:34:33.362Z,9.43
2018-07-09T22:37:01.954Z,7.27
2018-07-09T22:39:30.543Z,8.73
2018-07-09T22:41:59.182Z,11.63
2018-07-09T22:44:28.663Z,8.70
2018-07-09T22:46:57.325Z,9.30
2018-07-09T22:49:25.914Z,6.73
2018-07-09T22:51:54.493Z,9.03
2018-07-09T22:54:23.101Z,9.17
2018-07-09T22:56:51.695Z,7.57
2018-07-09T22:59:20.285Z,8.80
2018-07-09T23:01:48.928Z,5.73
2018-07-09T23:04:17.533Z,7.17
2018-07-09T23:06:46.156Z,8.53
2018-07-09T23:10:22.139Z,8.73
2018-07-09T23:12:55.968Z,7.70
2018-07-09T23:15:30.761Z,9.37
2018-07-09T23:18:04.876Z,5.20
2018-07-09T23:20:40.654Z,8.20
2018-07-09T23:23:08.587Z,8.60
2018-07-09T23:25:36.508Z,5.40
2018-07-09T23:28:04.432Z,6.93
2018-07-09T23:30:32.360Z,8.70
2018-07-09T23:33:00.324Z,10.63
2018-07-09T23:35:28.269Z,10.10
2018-07-09T23:37:56.194Z,6.00
2018-07-09T23:40:24.116Z,9.73
2018-07-09T23:42:52.041Z,7.63
2018-07-09T23:45:19.984Z,7.33
2018-07-09T23:47:47.916Z,7.77
2018-07-09T23:50:15.916Z,7.20
2018-07-09T23:52:43.828Z,7.17
2018-07-09T23:55:11.751Z,8.83
2018-07-09T23:57:54.858Z,7.07
